Time;durP1;ratioP1;P1;durP2;ratioP2;P2;SDS_P1;SDS_P2;PMS_P1;PMS_P2;Temp;Humidity;BMP_temperature;BMP_pressure;BME280_temperature;BME280_humidity;BME280_pressure;Samples;Min_cycle;Max_cycle;Signal;HPM_P1;HPM_P2
2022/05/11 00:00:08;;;;;;;30.77;15.20;;;12.90;99.90;;;;;;4956614;29;20050;-83
2022/05/11 00:02:34;;;;;;;30.27;16.48;;;12.90;99.90;;;;;;4937690;29;20086;-85
2022/05/11 00:05:00;;;;;;;28.27;15.50;;;12.90;99.90;;;;;;4939784;29;20054;-82
2022/05/11 00:07:26;;;;;;;32.42;16.05;;;12.90;99.90;;;;;;4959911;29;20061;-85
2022/05/11 00:09:52;;;;;;;28.80;15.63;;;13.00;99.90;;;;;;4937773;29;20075;-84
2022/05/11 00:12:17;;;;;;;27.08;15.30;;;13.00;99.90;;;;;;4918937;29;20138;-81
2022/05/11 00:14:43;;;;;;;39.33;17.83;;;13.00;99.90;;;;;;4921324;29;20051;-84
2022/05/11 00:17:09;;;;;;;31.20;17.00;;;13.00;99.90;;;;;;4936929;29;20487;-79
2022/05/11 00:19:36;;;;;;;29.75;16.80;;;13.00;99.90;;;;;;4937737;29;20047;-78
2022/05/11 00:22:02;;;;;;;29.67;16.88;;;13.00;99.90;;;;;;4971515;28;20129;-85
2022/05/11 00:24:28;;;;;;;29.13;16.52;;;13.00;99.90;;;;;;4954649;29;20101;-81
2022/05/11 00:26:54;;;;;;;31.20;17.17;;;13.00;99.90;;;;;;4937616;29;20511;-80
2022/05/11 00:29:20;;;;;;;37.80;17.83;;;13.00;99.90;;;;;;4969198;28;20539;-79
2022/05/11 00:31:47;;;;;;;32.70;16.98;;;13.00;99.90;;;;;;4954149;29;20162;-83
2022/05/11 00:34:13;;;;;;;32.22;17.73;;;13.00;99.90;;;;;;4969875;28;20101;-84
2022/05/11 00:36:39;;;;;;;33.35;19.75;;;13.00;99.90;;;;;;4953584;29;20051;-81
2022/05/11 00:39:05;;;;;;;37.92;19.02;;;13.00;99.90;;;;;;4953134;29;20118;-81
2022/05/11 00:41:31;;;;;;;34.58;19.75;;;13.00;99.90;;;;;;4954683;29;20051;-82
2022/05/11 00:44:06;;;;;;;35.88;19.35;;;13.00;99.90;;;;;;4937081;29;20058;-80
2022/05/11 00:46:54;;;;;;;40.25;21.27;;;13.00;99.90;;;;;;4935778;28;20055;-79
2022/05/11 00:49:34;;;;;;;37.80;19.27;;;13.00;99.90;;;;;;4936733;29;20059;-81
2022/05/11 00:52:18;;;;;;;43.85;21.27;;;13.00;99.90;;;;;;4937853;29;20058;-83
2022/05/11 00:55:00;;;;;;;38.60;21.73;;;13.00;99.90;;;;;;4970301;28;20059;-79
2022/05/11 00:57:38;;;;;;;39.97;20.67;;;13.00;99.90;;;;;;4936696;29;20306;-84
2022/05/11 01:00:10;;;;;;;39.42;21.30;;;13.00;99.90;;;;;;4936819;29;20503;-83
2022/05/11 01:02:38;;;;;;;36.47;20.10;;;13.00;99.90;;;;;;4953790;29;20047;-81
2022/05/11 01:05:06;;;;;;;42.25;20.95;;;13.00;99.90;;;;;;4952667;29;20047;-83
2022/05/11 01:07:34;;;;;;;36.38;20.20;;;13.00;99.90;;;;;;4971942;28;20889;-84
2022/05/11 01:09:59;;;;;;;33.50;19.83;;;13.00;99.90;;;;;;4937637;29;20051;-81
2022/05/11 01:12:35;;;;;;;38.53;21.42;;;13.00;99.90;;;;;;4921009;29;20102;-79
2022/05/11 01:15:04;;;;;;;37.65;18.55;;;13.00;99.90;;;;;;4953648;29;20043;-78
2022/05/11 01:17:33;;;;;;;30.35;17.05;;;13.00;99.90;;;;;;4953797;29;20058;-81
2022/05/11 01:20:00;;;;;;;37.03;18.67;;;13.00;99.90;;;;;;4936377;29;20463;-80
2022/05/11 01:22:40;;;;;;;31.30;16.92;;;13.00;99.90;;;;;;4920303;29;20203;-80
2022/05/11 01:25:09;;;;;;;32.42;17.95;;;13.00;99.90;;;;;;4956018;29;20491;-82
2022/05/11 01:27:41;;;;;;;35.83;17.35;;;13.10;99.90;;;;;;4968246;28;20491;-78
2022/05/11 01:30:10;;;;;;;33.15;17.10;;;13.00;99.90;;;;;;4952657;29;20051;-83
2022/05/11 01:32:37;;;;;;;30.88;18.38;;;13.00;99.90;;;;;;4953257;29;20402;-85
2022/05/11 01:35:30;;;;;;;28.95;17.05;;;13.00;99.90;;;;;;4953033;29;20510;-83
2022/05/11 01:38:20;;;;;;;35.58;18.00;;;13.00;99.90;;;;;;4939569;29;20083;-82
2022/05/11 01:40:47;;;;;;;31.75;17.20;;;13.00;99.90;;;;;;4936038;29;20050;-81
2022/05/11 01:43:19;;;;;;;28.80;17.05;;;13.10;99.90;;;;;;4935933;29;20146;-79
2022/05/11 01:45:46;;;;;;;32.60;18.10;;;13.10;99.90;;;;;;4936267;29;20523;-78
2022/05/11 01:48:12;;;;;;;32.13;16.58;;;13.10;99.90;;;;;;4955363;28;20057;-83
2022/05/11 01:50:38;;;;;;;30.15;15.65;;;13.10;99.90;;;;;;4976483;28;20129;-81
2022/05/11 01:53:05;;;;;;;29.98;16.20;;;13.10;99.90;;;;;;4972876;28;20055;-85
2022/05/11 01:55:32;;;;;;;30.10;15.38;;;13.10;99.90;;;;;;4971613;28;20403;-78
2022/05/11 01:57:58;;;;;;;32.63;16.15;;;13.10;99.90;;;;;;4972710;28;20055;-77
2022/05/11 02:00:24;;;;;;;34.28;17.80;;;13.10;99.90;;;;;;4972159;28;20117;-79
2022/05/11 02:02:51;;;;;;;28.10;17.13;;;13.10;99.90;;;;;;4954658;28;20410;-81
2022/05/11 02:08:01;;;;;;;26.30;15.68;;;13.10;99.90;;;;;;4955125;28;20495;-81
2022/05/11 02:10:27;;;;;;;29.05;17.10;;;13.10;99.90;;;;;;4971839;28;20415;-82
2022/05/11 02:12:57;;;;;;;27.42;15.50;;;13.00;99.90;;;;;;4971875;28;20086;-78
2022/05/11 02:15:24;;;;;;;31.88;16.20;;;13.00;99.90;;;;;;4938438;28;20109;-79
2022/05/11 02:17:50;;;;;;;30.92;16.67;;;13.10;99.90;;;;;;4970896;28;20062;-82
2022/05/11 02:20:18;;;;;;;30.48;15.95;;;13.00;99.90;;;;;;4956154;28;20055;-76
2022/05/11 02:22:45;;;;;;;30.05;15.95;;;13.10;99.90;;;;;;4976924;28;20057;-81
2022/05/11 02:25:13;;;;;;;29.33;16.85;;;13.00;99.90;;;;;;4938732;28;20365;-78
2022/05/11 02:27:39;;;;;;;30.13;16.25;;;13.00;99.90;;;;;;4954359;28;20074;-80
2022/05/11 02:30:08;;;;;;;27.85;16.80;;;13.00;99.90;;;;;;4954732;28;20050;-79
2022/05/11 02:32:34;;;;;;;29.48;15.63;;;13.00;99.90;;;;;;4955046;28;20050;-82
2022/05/11 02:35:12;;;;;;;30.88;16.88;;;13.00;99.90;;;;;;4974426;28;20516;-84
2022/05/11 02:37:45;;;;;;;31.77;17.60;;;13.00;99.90;;;;;;4972560;28;20090;-78
2022/05/11 02:40:15;;;;;;;26.95;15.55;;;13.00;99.90;;;;;;4956128;28;20051;-84
2022/05/11 02:42:41;;;;;;;30.45;16.95;;;13.00;99.90;;;;;;4977277;28;20055;-84
2022/05/11 02:45:08;;;;;;;28.73;15.52;;;13.00;99.90;;;;;;4959890;28;20098;-81
2022/05/11 02:47:34;;;;;;;36.05;16.35;;;13.00;99.90;;;;;;4958459;28;20060;-81
2022/05/11 02:50:03;;;;;;;34.30;15.48;;;13.00;99.90;;;;;;4944824;28;20106;-82
2022/05/11 02:52:30;;;;;;;26.15;14.73;;;13.00;99.90;;;;;;4959083;28;20050;-78
2022/05/11 02:54:56;;;;;;;26.30;14.23;;;13.00;99.90;;;;;;4957838;28;20062;-81
2022/05/11 02:57:22;;;;;;;22.73;15.23;;;13.00;99.90;;;;;;4974090;28;20050;-80
2022/05/11 02:59:49;;;;;;;29.77;15.60;;;13.00;99.90;;;;;;4957780;28;20062;-80
2022/05/11 03:02:20;;;;;;;28.55;14.88;;;13.00;99.90;;;;;;4943855;28;20058;-85
2022/05/11 03:04:47;;;;;;;29.27;14.45;;;13.10;99.90;;;;;;4944701;28;20133;-83
2022/05/11 03:07:13;;;;;;;26.50;15.57;;;13.00;99.90;;;;;;4942262;28;20050;-81
2022/05/11 03:09:39;;;;;;;29.13;15.35;;;13.10;99.90;;;;;;4975544;28;20058;-83
2022/05/11 03:12:06;;;;;;;30.95;14.98;;;13.10;99.90;;;;;;4957951;28;20120;-86
2022/05/11 03:14:32;;;;;;;34.70;13.75;;;13.10;99.90;;;;;;4975047;28;20105;-83
2022/05/11 03:16:57;;;;;;;27.15;13.65;;;13.00;99.90;;;;;;4979861;28;20137;-86
2022/05/11 03:19:24;;;;;;;23.70;13.40;;;13.00;99.90;;;;;;4959293;28;20059;-80
2022/05/11 03:21:50;;;;;;;28.92;13.30;;;13.10;99.90;;;;;;4957418;28;20059;-80
2022/05/11 03:24:17;;;;;;;33.63;13.65;;;13.00;99.90;;;;;;4957611;28;20069;-79
2022/05/11 03:26:43;;;;;;;26.67;13.48;;;13.00;99.90;;;;;;4957784;28;20254;-79
2022/05/11 03:29:11;;;;;;;22.80;12.27;;;13.10;99.90;;;;;;4942157;28;20110;-82
2022/05/11 03:31:38;;;;;;;24.70;11.98;;;13.00;99.90;;;;;;4978214;28;20047;-84
2022/05/11 03:36:49;;;;;;;21.35;11.07;;;13.10;99.90;;;;;;4975154;28;20186;-81
2022/05/11 03:39:16;;;;;;;24.95;11.52;;;13.10;99.90;;;;;;4973966;28;20110;-83
2022/05/11 03:41:45;;;;;;;25.85;12.38;;;13.10;99.90;;;;;;4957965;28;20054;-81
2022/05/11 03:44:11;;;;;;;22.17;11.77;;;13.10;99.90;;;;;;4976853;28;20114;-81
2022/05/11 03:46:37;;;;;;;22.83;11.77;;;13.10;99.90;;;;;;4978106;28;20506;-83
2022/05/11 03:49:04;;;;;;;26.70;13.05;;;13.10;99.90;;;;;;4973096;28;20054;-83
2022/05/11 03:51:29;;;;;;;20.38;11.70;;;13.10;99.90;;;;;;4957282;28;20090;-84
2022/05/11 03:53:56;;;;;;;25.90;12.00;;;13.10;99.90;;;;;;4974559;28;20097;-78
2022/05/11 03:56:22;;;;;;;26.52;12.77;;;13.00;99.90;;;;;;4975058;28;20463;-80
2022/05/11 03:58:48;;;;;;;22.48;11.85;;;13.00;99.90;;;;;;4959147;28;20059;-85
2022/05/11 04:01:14;;;;;;;20.42;12.13;;;13.00;99.90;;;;;;4958824;28;20055;-82
2022/05/11 04:03:41;;;;;;;23.60;11.85;;;13.00;99.90;;;;;;4956631;28;20054;-82
2022/05/11 04:06:07;;;;;;;26.48;12.45;;;13.00;99.90;;;;;;4957047;28;20070;-82
2022/05/11 04:08:33;;;;;;;25.02;12.35;;;13.10;99.90;;;;;;4956943;28;20137;-81
2022/05/11 04:10:59;;;;;;;27.80;12.55;;;13.10;99.90;;;;;;4956799;28;20113;-79
2022/05/11 04:13:25;;;;;;;27.27;13.00;;;13.10;99.90;;;;;;4975142;28;20086;-79
2022/05/11 04:15:52;;;;;;;23.42;12.55;;;13.10;99.90;;;;;;4957587;28;20054;-78
2022/05/11 04:18:20;;;;;;;25.63;12.23;;;13.10;99.90;;;;;;4973937;28;20067;-78
2022/05/11 04:20:46;;;;;;;26.90;13.55;;;13.10;99.90;;;;;;4974621;28;20102;-83
2022/05/11 04:23:12;;;;;;;21.13;11.65;;;13.10;99.90;;;;;;4957146;28;20050;-78
2022/05/11 04:25:38;;;;;;;22.23;11.63;;;13.10;99.90;;;;;;4974297;28;20061;-83
2022/05/11 04:28:12;;;;;;;26.42;12.57;;;13.10;99.90;;;;;;4975950;28;20106;-82
2022/05/11 04:30:39;;;;;;;27.13;11.35;;;13.10;99.90;;;;;;4975325;28;20137;-81
2022/05/11 04:33:09;;;;;;;25.75;11.38;;;13.10;99.90;;;;;;4956525;28;20491;-80
2022/05/11 04:35:36;;;;;;;29.05;11.40;;;13.10;99.90;;;;;;4973786;28;20541;-80
2022/05/11 04:38:04;;;;;;;24.20;11.85;;;13.20;99.90;;;;;;4956787;28;20412;-83
2022/05/11 04:40:31;;;;;;;31.23;13.02;;;13.20;99.90;;;;;;4956855;28;20134;-80
2022/05/11 04:42:57;;;;;;;22.38;11.35;;;13.20;99.90;;;;;;4976043;28;20051;-80
2022/05/11 04:45:23;;;;;;;22.15;10.60;;;13.20;99.90;;;;;;4973542;28;20051;-83
2022/05/11 04:47:50;;;;;;;20.02;10.27;;;13.30;99.90;;;;;;4968922;28;20063;-81
2022/05/11 04:50:17;;;;;;;19.80;10.73;;;13.20;99.90;;;;;;4954701;28;20051;-83
2022/05/11 04:52:43;;;;;;;21.15;10.10;;;13.30;99.90;;;;;;4937787;29;20058;-81
2022/05/11 04:55:10;;;;;;;23.35;11.00;;;13.30;99.90;;;;;;4954634;29;20047;-80
2022/05/11 04:57:37;;;;;;;23.23;10.23;;;13.30;99.90;;;;;;4969858;28;20526;-82
2022/05/11 05:00:09;;;;;;;24.65;10.27;;;13.30;99.90;;;;;;4956043;29;20052;-80
2022/05/11 05:02:35;;;;;;;24.40;10.27;;;13.40;99.90;;;;;;4954668;28;20063;-82
2022/05/11 05:05:05;;;;;;;18.55;9.35;;;13.40;99.90;;;;;;4936697;29;20063;-81
2022/05/11 05:07:34;;;;;;;20.00;9.45;;;13.40;99.90;;;;;;4955202;29;20515;-81
2022/05/11 05:10:01;;;;;;;22.52;10.00;;;13.40;99.90;;;;;;4938413;29;20047;-84
2022/05/11 05:12:27;;;;;;;18.30;8.43;;;13.40;99.90;;;;;;4940807;29;20055;-84
2022/05/11 05:14:53;;;;;;;21.98;8.70;;;13.40;99.90;;;;;;4939937;29;20070;-81
2022/05/11 05:17:19;;;;;;;20.67;8.70;;;13.50;99.90;;;;;;4938953;29;20491;-80
2022/05/11 05:19:46;;;;;;;21.23;9.30;;;13.50;99.90;;;;;;4954870;29;20055;-82
2022/05/11 05:22:12;;;;;;;21.00;8.70;;;13.50;99.90;;;;;;4954074;29;20051;-83
2022/05/11 05:24:38;;;;;;;21.73;8.32;;;13.50;99.90;;;;;;4937521;29;20081;-82
2022/05/11 05:27:05;;;;;;;21.08;7.32;;;13.50;99.90;;;;;;4935880;29;20051;-83
2022/05/11 05:32:16;;;;;;;17.77;6.70;;;13.60;99.90;;;;;;4953620;29;20059;-79
2022/05/11 05:34:45;;;;;;;24.05;8.38;;;13.60;99.90;;;;;;4953364;29;20110;-80
2022/05/11 05:37:12;;;;;;;19.77;9.05;;;13.60;99.90;;;;;;4936820;29;20410;-80
2022/05/11 05:39:38;;;;;;;18.65;7.72;;;13.60;99.90;;;;;;4919908;29;20094;-79
2022/05/11 05:42:05;;;;;;;23.73;8.32;;;13.70;99.90;;;;;;4952186;28;20102;-80
2022/05/11 05:44:32;;;;;;;18.95;8.38;;;13.80;99.90;;;;;;4953833;29;20061;-79
2022/05/11 05:47:08;;;;;;;17.42;8.68;;;13.80;99.90;;;;;;4947035;28;20781;-83
2022/05/11 05:49:34;;;;;;;17.05;7.35;;;13.80;99.90;;;;;;4955325;28;20415;-78
2022/05/11 05:52:02;;;;;;;19.98;6.90;;;13.90;99.90;;;;;;4939352;28;20406;-78
2022/05/11 05:54:38;;;;;;;18.55;6.88;;;13.90;99.90;;;;;;4954793;28;20058;-81
2022/05/11 05:57:04;;;;;;;26.02;8.38;;;13.90;99.90;;;;;;4954969;28;20047;-83
2022/05/11 05:59:30;;;;;;;18.92;7.13;;;14.00;99.90;;;;;;4940119;28;20094;-84
2022/05/11 06:01:57;;;;;;;20.58;8.77;;;14.10;99.90;;;;;;4956373;28;20074;-84
2022/05/11 06:04:23;;;;;;;20.27;7.88;;;14.20;99.90;;;;;;4922901;28;20577;-78
2022/05/11 06:06:49;;;;;;;23.25;8.70;;;14.30;99.90;;;;;;4954848;28;20137;-83
2022/05/11 06:09:15;;;;;;;19.20;7.70;;;14.30;99.90;;;;;;4954810;28;20130;-82
2022/05/11 06:11:41;;;;;;;19.00;7.28;;;14.40;99.90;;;;;;4954963;28;20060;-80
2022/05/11 06:14:07;;;;;;;22.27;7.35;;;14.40;99.90;;;;;;4954460;28;20050;-81
2022/05/11 06:16:33;;;;;;;25.17;7.85;;;14.40;99.90;;;;;;4973847;28;20117;-84
2022/05/11 06:18:59;;;;;;;16.73;6.75;;;14.50;99.90;;;;;;4954737;28;20050;-82
2022/05/11 06:21:25;;;;;;;18.52;7.38;;;14.60;99.90;;;;;;4954956;28;20100;-84
2022/05/11 06:23:51;;;;;;;16.10;7.07;;;14.60;99.90;;;;;;4954715;28;20470;-82
2022/05/11 06:26:18;;;;;;;20.35;7.55;;;14.60;99.90;;;;;;4972223;28;20047;-81
2022/05/11 06:28:46;;;;;;;23.05;6.65;;;14.70;99.90;;;;;;4956313;28;20138;-80
2022/05/11 06:31:13;;;;;;;18.23;6.30;;;14.70;99.90;;;;;;4971822;28;20061;-81
2022/05/11 06:33:40;;;;;;;21.70;7.03;;;14.70;99.90;;;;;;4954674;28;20059;-83
2022/05/11 06:36:08;;;;;;;15.43;6.75;;;14.80;99.90;;;;;;4972012;28;20158;-82
2022/05/11 06:38:35;;;;;;;19.33;7.07;;;14.80;99.90;;;;;;4953967;28;20568;-85
2022/05/11 06:41:11;;;;;;;16.60;6.15;;;14.80;99.90;;;;;;4972291;28;20042;-79
2022/05/11 06:43:36;;;;;;;21.73;5.90;;;14.80;99.90;;;;;;4956837;28;20593;-78
2022/05/11 06:46:02;;;;;;;22.20;5.85;;;14.80;99.90;;;;;;4971831;28;20123;-82
2022/05/11 06:48:28;;;;;;;21.23;7.13;;;14.80;99.90;;;;;;4971391;28;20062;-83
2022/05/11 06:50:54;;;;;;;20.92;6.70;;;14.90;99.90;;;;;;4938531;28;20059;-83
2022/05/11 06:53:20;;;;;;;23.60;6.47;;;15.00;99.90;;;;;;4954531;28;20594;-84
2022/05/11 07:01:18;;;;;;;20.95;6.05;;;15.10;99.90;;;;;;4970724;28;20055;-82
2022/05/11 07:03:44;;;;;;;20.80;6.68;;;15.20;99.90;;;;;;4970498;28;20050;-83
2022/05/11 07:06:10;;;;;;;19.63;5.38;;;15.20;99.90;;;;;;4954078;28;20047;-85
2022/05/11 07:08:41;;;;;;;21.98;5.68;;;15.20;99.90;;;;;;4954118;28;20097;-82
2022/05/11 07:13:55;;;;;;;16.70;4.85;;;15.20;99.90;;;;;;4970700;28;20062;-85
2022/05/11 07:16:21;;;;;;;19.23;5.55;;;15.10;99.90;;;;;;4941081;28;20090;-85
2022/05/11 07:18:47;;;;;;;16.73;4.80;;;15.20;99.90;;;;;;4953935;28;20090;-83
2022/05/11 07:21:13;;;;;;;15.82;5.20;;;15.20;99.90;;;;;;4954228;28;20062;-83
2022/05/11 07:23:39;;;;;;;15.65;5.53;;;15.30;99.90;;;;;;4953833;28;20113;-82
2022/05/11 07:26:05;;;;;;;21.27;6.20;;;15.20;99.90;;;;;;4953957;28;20047;-82
2022/05/11 07:28:31;;;;;;;17.52;5.53;;;15.20;99.90;;;;;;4957626;28;20059;-80
2022/05/11 07:30:57;;;;;;;19.85;5.30;;;15.40;99.90;;;;;;4976559;28;20050;-85
2022/05/11 07:33:23;;;;;;;15.18;5.05;;;15.30;99.90;;;;;;4982062;28;20161;-85
2022/05/11 07:35:49;;;;;;;16.98;4.93;;;15.30;99.90;;;;;;4974719;28;20058;-81
2022/05/11 07:38:18;;;;;;;18.48;5.22;;;15.40;99.90;;;;;;4974991;28;20054;-83
2022/05/11 07:40:45;;;;;;;22.70;5.88;;;15.50;99.90;;;;;;4957576;28;20496;-84
2022/05/11 07:43:12;;;;;;;16.70;5.50;;;15.60;99.90;;;;;;4975197;28;20065;-81
2022/05/11 07:45:39;;;;;;;21.00;5.93;;;15.70;99.90;;;;;;4976448;28;20149;-83
2022/05/11 07:48:07;;;;;;;20.42;4.65;;;15.80;99.90;;;;;;4977329;28;20059;-84
2022/05/11 07:50:33;;;;;;;18.17;4.68;;;16.00;99.90;;;;;;4976979;28;20511;-85
2022/05/11 07:52:59;;;;;;;19.60;4.93;;;16.00;99.90;;;;;;4975882;28;20046;-86
2022/05/11 07:55:26;;;;;;;14.40;4.72;;;16.20;99.90;;;;;;4976177;28;20086;-85
2022/05/11 08:00:37;;;;;;;17.98;4.90;;;16.30;99.90;;;;;;4977518;28;20521;-81
2022/05/11 08:03:04;;;;;;;13.77;4.45;;;16.50;99.90;;;;;;4945235;28;20085;-82
2022/05/11 08:05:32;;;;;;;13.65;3.83;;;16.60;99.90;;;;;;4960189;28;20470;-85
2022/05/11 08:08:03;;;;;;;12.35;3.65;;;16.70;99.90;;;;;;4958917;28;20055;-84
2022/05/11 08:10:39;;;;;;;13.80;4.03;;;16.80;99.90;;;;;;4977173;28;20570;-82
2022/05/11 08:13:07;;;;;;;18.65;4.07;;;16.80;99.90;;;;;;4977714;28;20051;-82
2022/05/11 08:15:36;;;;;;;13.80;3.65;;;16.90;99.90;;;;;;4980124;28;20058;-83
2022/05/11 08:18:04;;;;;;;12.25;4.15;;;17.00;99.90;;;;;;4975688;28;20059;-83
2022/05/11 08:20:34;;;;;;;14.30;3.38;;;17.20;99.90;;;;;;4972645;28;20046;-85
2022/05/11 08:23:02;;;;;;;16.73;4.00;;;17.20;99.90;;;;;;4973975;28;20047;-83
2022/05/11 08:25:30;;;;;;;15.25;4.03;;;17.50;99.90;;;;;;4975060;28;20050;-84
2022/05/11 08:27:58;;;;;;;19.20;4.68;;;17.60;99.90;;;;;;4978807;28;20053;-86
2022/05/11 08:33:19;;;;;;;15.00;4.32;;;17.70;99.90;;;;;;4973966;28;20051;-81
2022/05/11 08:35:46;;;;;;;19.13;3.45;;;17.80;99.90;;;;;;4973702;28;20058;-81
2022/05/11 08:38:11;;;;;;;15.60;3.95;;;17.90;99.90;;;;;;4973356;28;20495;-84
2022/05/11 08:40:37;;;;;;;15.10;3.97;;;17.90;99.90;;;;;;4973745;28;20043;-82
2022/05/11 08:43:16;;;;;;;13.18;3.88;;;17.90;99.90;;;;;;4973353;28;20058;-84
2022/05/11 08:45:50;;;;;;;17.05;3.30;;;17.80;99.90;;;;;;4973796;28;20511;-82
2022/05/11 08:48:31;;;;;;;16.50;4.97;;;17.90;99.90;;;;;;4975837;28;20089;-83
2022/05/11 08:50:57;;;;;;;12.23;4.03;;;18.20;99.90;;;;;;4957341;28;20058;-85
2022/05/11 08:53:33;;;;;;;16.73;3.72;;;18.30;99.90;;;;;;4974365;28;20042;-82
2022/05/11 08:56:04;;;;;;;16.40;4.93;;;18.30;99.90;;;;;;4975127;28;20070;-86
2022/05/11 08:58:49;;;;;;;16.15;3.90;;;18.50;99.90;;;;;;4974795;28;20063;-83
2022/05/11 09:01:45;;;;;;;16.13;3.75;;;18.40;99.90;;;;;;4973076;28;20085;-85
2022/05/11 09:04:15;;;;;;;12.35;3.88;;;18.30;99.90;;;;;;4954515;28;20050;-83
2022/05/11 09:06:44;;;;;;;15.05;3.80;;;18.20;99.90;;;;;;4959994;28;20051;-80
2022/05/11 09:09:12;;;;;;;13.13;3.28;;;18.40;99.90;;;;;;4955663;28;20051;-82
2022/05/11 09:11:42;;;;;;;19.58;3.70;;;18.50;99.90;;;;;;4973109;28;20051;-81
2022/05/11 09:14:12;;;;;;;17.00;4.22;;;18.40;99.90;;;;;;4973038;28;20525;-85
2022/05/11 09:16:44;;;;;;;17.38;4.30;;;18.50;99.90;;;;;;4955631;28;20146;-84
2022/05/11 09:19:22;;;;;;;12.40;4.30;;;18.80;99.90;;;;;;4972861;28;20086;-84
2022/05/11 09:22:17;;;;;;;10.88;2.30;;;19.00;99.90;;;;;;4956413;28;20055;-83
2022/05/11 09:24:56;;;;;;;12.32;2.10;;;18.60;99.00;;;;;;4973627;28;20141;-85
2022/05/11 09:27:32;;;;;;;15.48;3.17;;;18.30;99.90;;;;;;4972964;28;20062;-85
2022/05/11 09:30:15;;;;;;;9.02;2.50;;;18.20;99.90;;;;;;4972787;28;20061;-82
2022/05/11 09:32:44;;;;;;;8.55;2.53;;;18.40;99.90;;;;;;4972529;28;20085;-82
2022/05/11 09:35:36;;;;;;;10.32;3.85;;;18.70;99.90;;;;;;4972512;28;20518;-83
2022/05/11 09:38:05;;;;;;;10.73;2.03;;;18.90;99.20;;;;;;4972623;28;20171;-85
2022/05/11 09:40:47;;;;;;;9.85;1.95;;;19.00;99.20;;;;;;4974447;28;20054;-83
2022/05/11 09:43:33;;;;;;;7.88;2.60;;;19.30;98.50;;;;;;4973045;28;20499;-82
2022/05/11 09:46:00;;;;;;;10.40;2.10;;;19.30;95.80;;;;;;4966443;28;20163;-84
2022/05/11 09:48:31;;;;;;;10.45;2.03;;;19.50;97.30;;;;;;4971815;28;20077;-84
2022/05/11 09:51:21;;;;;;;11.43;2.17;;;19.80;96.20;;;;;;4972066;28;20058;-82
2022/05/11 09:53:54;;;;;;;8.77;2.10;;;19.80;93.60;;;;;;4972123;28;20138;-84
2022/05/11 09:56:33;;;;;;;8.77;2.37;;;20.10;95.10;;;;;;4974438;28;20050;-85
2022/05/11 09:59:37;;;;;;;13.93;3.60;;;20.30;94.50;;;;;;4972310;28;20314;-81
2022/05/11 10:02:26;;;;;;;9.25;1.90;;;20.50;94.70;;;;;;4972497;28;20061;-86
2022/05/11 10:05:15;;;;;;;12.25;2.15;;;20.50;94.90;;;;;;4964622;28;20065;-84
2022/05/11 10:07:58;;;;;;;8.43;1.90;;;20.60;92.20;;;;;;4972317;28;20051;-83
2022/05/11 10:10:45;;;;;;;6.40;1.70;;;20.60;91.90;;;;;;4956640;28;20066;-86
2022/05/11 10:13:34;;;;;;;12.45;2.30;;;20.20;91.80;;;;;;4972264;28;20058;-85
2022/05/11 10:22:00;;;;;;;10.57;2.47;;;19.90;94.40;;;;;;4954317;28;20101;-83
2022/05/11 10:24:45;;;;;;;10.30;1.90;;;19.80;92.50;;;;;;4972989;28;20049;-84
2022/05/11 10:27:30;;;;;;;11.05;2.13;;;19.60;93.70;;;;;;4971855;28;20105;-84
2022/05/11 10:30:09;;;;;;;8.50;2.08;;;19.80;94.30;;;;;;4971912;28;20059;-84
2022/05/11 10:32:46;;;;;;;9.55;2.05;;;20.00;94.70;;;;;;4954506;28;20077;-82
2022/05/11 10:35:15;;;;;;;10.55;2.20;;;20.10;94.50;;;;;;4972568;28;20394;-85
2022/05/11 10:37:59;;;;;;;10.43;1.73;;;19.90;93.50;;;;;;4954388;28;20063;-82
2022/05/11 10:40:40;;;;;;;9.85;2.17;;;20.10;94.10;;;;;;4975449;28;20043;-85
2022/05/11 10:43:45;;;;;;;8.45;1.85;;;20.20;93.30;;;;;;4957835;28;20051;-82
2022/05/11 10:46:18;;;;;;;9.73;2.83;;;20.10;92.30;;;;;;4954757;28;20047;-83
2022/05/11 10:49:19;;;;;;;10.57;2.40;;;20.30;93.70;;;;;;4971957;28;20059;-82
2022/05/11 10:51:54;;;;;;;13.43;2.80;;;20.00;92.50;;;;;;4972915;28;20082;-82
2022/05/11 10:54:44;;;;;;;7.75;1.73;;;19.90;94.60;;;;;;4956799;28;20074;-84
2022/05/11 10:57:31;;;;;;;13.25;3.13;;;19.90;94.00;;;;;;4976116;28;20514;-85
2022/05/11 11:00:00;;;;;;;8.02;2.17;;;19.90;94.70;;;;;;4973553;28;20495;-85
2022/05/11 11:02:57;;;;;;;8.70;2.13;;;20.00;93.80;;;;;;4974249;28;20438;-85
2022/05/11 11:05:37;;;;;;;14.68;2.40;;;20.40;94.60;;;;;;4975547;28;20082;-88
2022/05/11 11:08:25;;;;;;;11.98;2.50;;;20.60;94.10;;;;;;4975045;28;20140;-85
2022/05/11 11:10:59;;;;;;;8.13;1.85;;;20.50;94.40;;;;;;4974450;28;20150;-85
2022/05/11 11:13:48;;;;;;;11.00;2.50;;;20.50;94.70;;;;;;4977686;28;20061;-86
2022/05/11 11:16:15;;;;;;;9.07;2.42;;;20.50;94.40;;;;;;4958150;28;20524;-84
2022/05/11 11:18:49;;;;;;;9.95;2.60;;;20.70;93.80;;;;;;4974560;28;20058;-85
2022/05/11 11:21:17;;;;;;;12.52;2.60;;;20.30;94.00;;;;;;4975537;28;20059;-83
2022/05/11 11:23:48;;;;;;;14.43;2.85;;;20.10;94.30;;;;;;4975150;28;20051;-82
2022/05/11 11:26:51;;;;;;;12.35;3.17;;;20.20;94.20;;;;;;4957768;28;20498;-84
2022/05/11 11:29:21;;;;;;;12.70;2.28;;;20.20;94.40;;;;;;4957356;28;20126;-81
2022/05/11 11:32:03;;;;;;;9.10;2.40;;;20.20;94.50;;;;;;4957910;28;20130;-83
2022/05/11 11:34:41;;;;;;;12.82;2.60;;;20.20;94.30;;;;;;4957625;28;20145;-84
2022/05/11 11:37:25;;;;;;;10.02;2.65;;;20.20;94.60;;;;;;4974840;28;20403;-84
2022/05/11 11:39:57;;;;;;;7.33;1.90;;;20.30;95.20;;;;;;4974591;28;20586;-84
2022/05/11 11:42:35;;;;;;;11.65;2.38;;;20.30;95.00;;;;;;4976016;28;20054;-85
2022/05/11 11:45:03;;;;;;;8.43;2.67;;;20.20;94.20;;;;;;4958708;28;20142;-84
2022/05/11 11:47:30;;;;;;;10.73;2.05;;;20.10;93.80;;;;;;4974370;28;20672;-83
2022/05/11 11:49:58;;;;;;;15.77;3.88;;;20.20;94.20;;;;;;4974483;28;20051;-87
2022/05/11 11:52:46;;;;;;;11.88;2.35;;;20.60;94.20;;;;;;4941138;28;20047;-84
2022/05/11 11:55:18;;;;;;;13.35;3.10;;;20.30;94.40;;;;;;4957362;28;20402;-83
2022/05/11 11:57:46;;;;;;;13.90;2.67;;;20.10;94.50;;;;;;4958206;28;20054;-84
2022/05/11 12:00:21;;;;;;;12.80;3.00;;;20.40;94.90;;;;;;4979031;28;20211;-81
2022/05/11 12:02:47;;;;;;;12.82;3.25;;;20.20;93.80;;;;;;4974697;28;20454;-87
2022/05/11 12:05:28;;;;;;;13.10;2.92;;;19.80;94.40;;;;;;4974408;28;20066;-86
2022/05/11 12:16:26;;;;;;;11.98;2.92;;;19.40;96.90;;;;;;4974381;28;20131;-86
2022/05/11 12:19:07;;;;;;;13.50;3.15;;;19.20;97.30;;;;;;4974460;28;20058;-87
2022/05/11 12:21:36;;;;;;;12.38;2.63;;;19.30;98.00;;;;;;4973930;28;20398;-87
2022/05/11 12:24:06;;;;;;;16.20;3.10;;;19.60;97.90;;;;;;4974067;28;20054;-86
2022/05/11 12:26:36;;;;;;;16.17;2.80;;;19.80;96.70;;;;;;4974528;28;20132;-85
2022/05/11 12:31:57;;;;;;;12.13;3.53;;;20.30;95.70;;;;;;4956377;28;20057;-83
2022/05/11 12:34:26;;;;;;;16.42;3.17;;;20.00;96.00;;;;;;4973654;28;20133;-87
2022/05/11 12:36:55;;;;;;;14.18;2.50;;;20.10;97.10;;;;;;4974112;28;20080;-83
2022/05/11 12:39:38;;;;;;;15.38;3.00;;;20.20;97.10;;;;;;4973918;28;20129;-84
2022/05/11 12:42:05;;;;;;;12.68;3.22;;;19.90;96.40;;;;;;4974425;28;20054;-87
2022/05/11 12:44:35;;;;;;;15.13;3.40;;;19.70;96.90;;;;;;4975446;28;20051;-82
2022/05/11 12:47:04;;;;;;;15.32;3.28;;;19.30;97.10;;;;;;4956049;28;20065;-84
2022/05/11 12:49:30;;;;;;;12.10;3.03;;;19.00;98.10;;;;;;4956169;28;20138;-84
2022/05/11 12:52:03;;;;;;;17.25;4.50;;;18.70;98.90;;;;;;4973409;28;20057;-86
2022/05/11 12:54:31;;;;;;;16.17;3.10;;;18.60;99.30;;;;;;4973545;28;20495;-84
2022/05/11 12:57:08;;;;;;;13.25;3.05;;;18.40;99.90;;;;;;4974806;28;20105;-82
2022/05/11 12:59:35;;;;;;;19.85;3.83;;;18.30;99.90;;;;;;4980956;28;20057;-88
2022/05/11 13:02:23;;;;;;;20.58;4.80;;;18.10;99.90;;;;;;4973898;28;20055;-82
2022/05/11 13:04:58;;;;;;;16.00;3.13;;;18.00;99.90;;;;;;4973470;28;20065;-82
2022/05/11 13:07:53;;;;;;;17.90;4.00;;;18.00;99.90;;;;;;4973397;28;20405;-83
2022/05/11 13:10:33;;;;;;;18.42;4.50;;;17.80;99.90;;;;;;4942544;28;20047;-83
2022/05/11 13:13:01;;;;;;;17.88;4.22;;;17.60;99.90;;;;;;4956761;28;20539;-80
2022/05/11 13:15:39;;;;;;;20.00;4.47;;;17.50;99.90;;;;;;4975270;28;20055;-85
2022/05/11 13:18:08;;;;;;;18.38;4.38;;;17.50;99.90;;;;;;4976048;28;20050;-83
2022/05/11 13:20:42;;;;;;;16.85;4.65;;;17.40;99.90;;;;;;4973732;28;20487;-84
2022/05/11 13:23:20;;;;;;;21.13;4.80;;;17.30;99.90;;;;;;4973486;28;20109;-86
2022/05/11 13:25:53;;;;;;;21.52;4.93;;;17.10;99.90;;;;;;4954962;28;20051;-88
2022/05/11 13:28:40;;;;;;;14.85;3.92;;;17.10;99.90;;;;;;4973286;28;20054;-83
2022/05/11 13:31:27;;;;;;;20.80;5.65;;;17.00;99.90;;;;;;4975993;28;20045;-84